createdAt,value
2023-02-20T00:00:35.306Z,101985.59
2023-02-20T00:03:01.785Z,101899.16
2023-02-20T00:05:28.323Z,101875.63
2023-02-20T00:07:54.699Z,101934.13
2023-02-20T00:10:26.352Z,101956.03
2023-02-20T00:12:55.140Z,101875.75
2023-02-20T00:15:22.136Z,101890.63
2023-02-20T00:17:49.407Z,101855.78
2023-02-20T00:20:21.297Z,101803.19
2023-02-20T00:22:48.179Z,101881.75
2023-02-20T00:25:21.304Z,101966.50
2023-02-20T00:27:47.976Z,101953.34
2023-02-20T00:30:23.423Z,101916.69
2023-02-20T00:32:52.853Z,101956.75
2023-02-20T00:35:20.055Z,101919.34
2023-02-20T00:37:50.463Z,101916.75
2023-02-20T00:40:19.709Z,101860.78
2023-02-20T00:42:46.607Z,101965.66
2023-02-20T00:45:14.981Z,101952.72
2023-02-20T00:47:41.547Z,101937.69
2023-02-20T00:50:09.530Z,101947.41
2023-02-20T00:52:36.326Z,101825.19
2023-02-20T00:55:03.422Z,101813.97
2023-02-20T00:57:29.889Z,101884.75
2023-02-20T00:59:56.824Z,101855.84
2023-02-20T01:02:23.343Z,101922.34
2023-02-20T01:04:49.943Z,101900.47
2023-02-20T01:07:16.594Z,101897.09
2023-02-20T01:09:43.170Z,101778.31
2023-02-20T01:12:10.483Z,101748.81
2023-02-20T01:14:42.860Z,101887.59
2023-02-20T01:17:10.700Z,101810.63
2023-02-20T01:19:39.541Z,101891.00
2023-02-20T01:22:08.688Z,101856.03
2023-02-20T01:24:35.267Z,101899.81
2023-02-20T01:27:01.818Z,101857.97
2023-02-20T01:29:28.280Z,101775.88
2023-02-20T01:31:54.895Z,101885.91
2023-02-20T01:34:22.099Z,101724.53
2023-02-20T01:36:53.488Z,101737.66
2023-02-20T01:39:43.353Z,101816.06
2023-02-20T01:42:14.762Z,101871.84
2023-02-20T01:44:42.274Z,101811.56
2023-02-20T01:47:12.841Z,101851.03
2023-02-20T01:50:07.096Z,101828.75
2023-02-20T01:52:36.916Z,101873.41
2023-02-20T01:55:23.269Z,101868.28
2023-02-20T01:57:58.660Z,101885.78
2023-02-20T02:00:25.951Z,101856.69
2023-02-20T02:03:00.336Z,101840.41
2023-02-20T02:05:29.088Z,101761.53
2023-02-20T02:07:58.474Z,101667.66
2023-02-20T02:10:33.132Z,101822.78
2023-02-20T02:12:59.966Z,101713.03
2023-02-20T02:15:26.475Z,101727.72
2023-02-20T02:18:32.780Z,101849.16
2023-02-20T02:21:35.972Z,101848.25
2023-02-20T02:24:36.758Z,101770.56
2023-02-20T02:27:30.517Z,101789.69
2023-02-20T02:30:28.151Z,101828.28
2023-02-20T02:33:06.053Z,101817.78
2023-02-20T02:35:50.800Z,101810.91
2023-02-20T02:39:04.636Z,101809.22
2023-02-20T02:41:56.211Z,101808.16
2023-02-20T02:44:42.749Z,101725.47
2023-02-20T02:47:22.732Z,101803.03
2023-02-20T02:49:55.149Z,101799.72
2023-02-20T02:52:41.079Z,101781.41
2023-02-20T02:55:09.132Z,101686.25
2023-02-20T02:57:35.903Z,101769.09
2023-02-20T03:00:10.679Z,101803.94
2023-02-20T03:03:32.753Z,101800.34
2023-02-20T03:06:16.356Z,101790.78
2023-02-20T03:08:57.326Z,101779.25
2023-02-20T03:11:27.105Z,101793.44
2023-02-20T03:14:20.760Z,101770.69
2023-02-20T03:17:14.707Z,101778.81
2023-02-20T03:19:46.257Z,101763.94
2023-02-20T03:22:24.394Z,101768.44
2023-02-20T03:24:59.562Z,101750.81
2023-02-20T03:27:44.109Z,101772.50
2023-02-20T03:30:14.854Z,101770.09
2023-02-20T03:33:02.123Z,101654.09
2023-02-20T03:35:50.956Z,101701.16
2023-02-20T03:38:39.844Z,101711.56
2023-02-20T03:41:37.209Z,101727.28
2023-02-20T03:44:06.465Z,101645.44
2023-02-20T03:46:39.303Z,101608.63
2023-02-20T03:49:15.066Z,101652.94
2023-02-20T03:51:42.110Z,101571.03
2023-02-20T03:54:10.405Z,101773.34
2023-02-20T03:56:52.886Z,101643.13
2023-02-20T03:59:26.567Z,101631.09
2023-02-20T04:01:59.812Z,101736.88
2023-02-20T04:04:40.126Z,101764.81
2023-02-20T04:07:12.291Z,101746.44
2023-02-20T04:09:43.061Z,101757.56
2023-02-20T04:12:32.609Z,101632.13
2023-02-20T04:15:02.049Z,101662.66
2023-02-20T04:17:35.793Z,101749.19
2023-02-20T04:20:02.464Z,101627.13
2023-02-20T04:22:34.261Z,101694.22
2023-02-20T04:25:19.227Z,101709.97
2023-02-20T04:27:45.728Z,101718.44
2023-02-20T04:30:12.954Z,101651.22
2023-02-20T04:32:39.342Z,101746.34
2023-02-20T04:35:06.259Z,101752.47
2023-02-20T04:37:32.894Z,101732.19
2023-02-20T04:39:59.359Z,101746.34
2023-02-20T04:42:25.767Z,101765.44
2023-02-20T04:44:52.140Z,101742.75
2023-02-20T04:47:18.790Z,101749.72
2023-02-20T04:49:45.320Z,101640.63
2023-02-20T04:52:11.796Z,101737.44
2023-02-20T04:54:38.312Z,101514.69
2023-02-20T04:57:04.771Z,101730.50
2023-02-20T04:59:31.112Z,101622.22
2023-02-20T05:02:01.637Z,101646.31
2023-02-20T05:04:28.566Z,101588.13
2023-02-20T05:06:55.967Z,101706.88
2023-02-20T05:09:23.068Z,101674.47
2023-02-20T05:11:49.546Z,101678.06
2023-02-20T05:14:16.312Z,101636.97
2023-02-20T05:16:46.393Z,101624.16
2023-02-20T05:19:16.079Z,101760.00
2023-02-20T05:22:05.197Z,101704.19
2023-02-20T05:24:32.280Z,101749.56
2023-02-20T05:26:59.353Z,101634.50
2023-02-20T05:29:25.938Z,101759.22
2023-02-20T05:31:52.417Z,101617.84
2023-02-20T05:34:21.335Z,101732.28
2023-02-20T05:36:48.032Z,101494.81
2023-02-20T05:39:14.514Z,101741.56
2023-02-20T05:41:40.949Z,101699.00
2023-02-20T05:44:07.379Z,101496.66
2023-02-20T05:46:39.769Z,101626.50
2023-02-20T05:49:09.363Z,101624.00
2023-02-20T05:51:35.824Z,101639.22
2023-02-20T05:54:04.242Z,101691.09
2023-02-20T05:56:32.836Z,101735.34
2023-02-20T05:58:59.818Z,101750.31
2023-02-20T06:01:31.065Z,101597.84
2023-02-20T06:03:58.180Z,101646.66
2023-02-20T06:06:24.721Z,101648.38
2023-02-20T06:08:51.147Z,101608.81
2023-02-20T06:11:18.830Z,101605.75
2023-02-20T06:13:48.272Z,101611.59
2023-02-20T06:16:23.111Z,101599.09
2023-02-20T06:18:49.586Z,101576.78
2023-02-20T06:21:15.974Z,101697.41
2023-02-20T06:23:45.861Z,101737.47
2023-02-20T06:26:12.863Z,101719.97
2023-02-20T06:28:41.693Z,101709.13
2023-02-20T06:31:09.342Z,101607.31
2023-02-20T06:33:36.303Z,101764.38
2023-02-20T06:36:05.956Z,101718.53
2023-02-20T06:38:32.342Z,101724.88
2023-02-20T06:40:58.810Z,101641.69
2023-02-20T06:43:25.213Z,101570.72
2023-02-20T06:45:51.597Z,101561.59
2023-02-20T06:48:27.702Z,101721.31
2023-02-20T06:50:56.201Z,101710.16
2023-02-20T06:53:22.762Z,101679.78
2023-02-20T06:55:49.307Z,101622.84
2023-02-20T06:58:15.863Z,101682.16
2023-02-20T07:00:42.373Z,101534.66
2023-02-20T07:03:08.879Z,101635.88
2023-02-20T07:05:35.260Z,101673.19
2023-02-20T07:08:01.685Z,101654.19
2023-02-20T07:10:28.125Z,101625.44
2023-02-20T07:12:54.537Z,101496.72
2023-02-20T07:15:21.542Z,101606.94
2023-02-20T07:17:48.008Z,101717.91
2023-02-20T07:20:15.092Z,101615.13
2023-02-20T07:22:51.390Z,101784.34
2023-02-20T07:25:20.129Z,101723.13
2023-02-20T07:27:53.314Z,101619.44
2023-02-20T07:30:19.941Z,101603.06
2023-02-20T07:32:46.663Z,101615.06
2023-02-20T07:35:18.654Z,101664.88
2023-02-20T07:37:45.009Z,101619.91
2023-02-20T07:40:12.985Z,101667.25
2023-02-20T07:45:33.100Z,101800.88
2023-02-20T07:47:59.562Z,101672.59
2023-02-20T07:50:26.024Z,101682.69
2023-02-20T07:52:52.575Z,101700.03
2023-02-20T07:55:19.541Z,101580.28
2023-02-20T07:57:51.933Z,101798.44
2023-02-20T08:00:19.286Z,101784.78
2023-02-20T08:02:46.443Z,101640.59
2023-02-20T08:05:13.067Z,101765.69
2023-02-20T08:07:45.043Z,101783.03
2023-02-20T08:10:11.600Z,101698.06
2023-02-20T08:12:38.117Z,101573.69
2023-02-20T08:15:05.106Z,101665.94
2023-02-20T08:17:44.440Z,101656.03
2023-02-20T08:20:12.957Z,101769.72
2023-02-20T08:22:42.425Z,101770.97
2023-02-20T08:25:09.185Z,101694.75
2023-02-20T08:27:38.771Z,101785.44
2023-02-20T08:30:09.967Z,101680.06
2023-02-20T08:32:36.485Z,101625.66
2023-02-20T08:35:03.924Z,101575.34
2023-02-20T08:37:31.657Z,101620.50
2023-02-20T08:39:58.255Z,101603.38
2023-02-20T08:42:24.801Z,101636.56
2023-02-20T08:44:54.553Z,101508.53
2023-02-20T08:47:23.728Z,101700.81
2023-02-20T08:49:50.190Z,101763.88
2023-02-20T08:52:16.646Z,101598.66
2023-02-20T08:54:50.014Z,101744.94
2023-02-20T08:57:17.705Z,101707.28
2023-02-20T08:59:44.673Z,101683.47
2023-02-20T09:02:24.598Z,101753.44
2023-02-20T09:04:54.387Z,101720.47
2023-02-20T09:07:20.789Z,101678.91
2023-02-20T09:09:47.636Z,101544.69
2023-02-20T09:12:14.356Z,101635.16
2023-02-20T09:14:40.775Z,101658.63
2023-02-20T09:17:07.248Z,101734.38
2023-02-20T09:19:34.025Z,101644.00
2023-02-20T09:22:01.254Z,101765.06
2023-02-20T09:24:34.074Z,101781.53
2023-02-20T09:27:06.302Z,101621.47
2023-02-20T09:29:32.670Z,101736.50
2023-02-20T09:31:59.205Z,101729.44
2023-02-20T09:34:26.581Z,101737.94
2023-02-20T09:36:54.762Z,101750.16
2023-02-20T09:39:22.136Z,101747.72
2023-02-20T09:42:18.879Z,101776.59
2023-02-20T09:45:17.328Z,101786.81
2023-02-20T09:47:58.815Z,101779.97
2023-02-20T09:50:56.075Z,101645.94
2023-02-20T09:53:35.105Z,101776.69
2023-02-20T09:56:03.757Z,101642.53
2023-02-20T09:59:00.185Z,101640.41
2023-02-20T10:01:28.799Z,101764.56
2023-02-20T10:04:05.399Z,101595.44
2023-02-20T10:06:35.436Z,101740.97
2023-02-20T10:09:03.856Z,101713.97
2023-02-20T10:11:45.404Z,101771.50
2023-02-20T10:14:45.921Z,101762.66
2023-02-20T10:17:54.037Z,101724.50
2023-02-20T10:20:57.458Z,101760.28
2023-02-20T10:24:05.226Z,101669.72
2023-02-20T10:26:41.430Z,101602.63
2023-02-20T10:29:28.220Z,101703.53
2023-02-20T10:32:16.300Z,101659.97
2023-02-20T10:34:59.345Z,101726.25
2023-02-20T10:37:46.366Z,101774.94
2023-02-20T10:40:28.323Z,101770.69
2023-02-20T10:43:02.058Z,101746.16
2023-02-20T10:45:54.005Z,101767.94
2023-02-20T10:48:26.231Z,101757.63
2023-02-20T10:51:14.524Z,101758.59
2023-02-20T10:53:47.417Z,101761.22
2023-02-20T11:00:35.167Z,101749.75
2023-02-20T11:03:11.082Z,101742.00
2023-02-20T11:05:45.873Z,101541.66
2023-02-20T11:08:20.693Z,101547.78
2023-02-20T11:10:57.069Z,101644.53
2023-02-20T11:13:25.205Z,101620.16
2023-02-20T11:15:55.080Z,101727.25
2023-02-20T11:18:42.151Z,101743.78
2023-02-20T11:24:46.747Z,101721.13
2023-02-20T11:27:18.302Z,101646.19
2023-02-20T11:30:16.423Z,101747.22
2023-02-20T11:36:20.059Z,101720.22
2023-02-20T11:38:57.192Z,101537.41
2023-02-20T11:41:29.076Z,101533.03
2023-02-20T11:44:16.054Z,101621.88
2023-02-20T11:46:43.988Z,101458.31
2023-02-20T11:49:22.760Z,101520.88
2023-02-20T11:51:50.447Z,101550.59
2023-02-20T11:54:26.118Z,101665.47
2023-02-20T11:57:04.580Z,101706.41
2023-02-20T11:59:44.848Z,101645.38
2023-02-20T12:02:17.483Z,101712.47
2023-02-20T12:05:00.009Z,101670.66
2023-02-20T12:07:36.241Z,101622.75
2023-02-20T12:10:31.158Z,101700.28
2023-02-20T12:12:57.746Z,101699.44
2023-02-20T12:15:26.928Z,101639.31
2023-02-20T12:18:12.483Z,101702.00
2023-02-20T12:20:45.540Z,101446.84
2023-02-20T12:23:26.898Z,101509.66
2023-02-20T12:26:08.554Z,101679.41
2023-02-20T12:28:39.657Z,101648.88
2023-02-20T12:31:38.673Z,101695.91
2023-02-20T12:34:31.469Z,101642.88
2023-02-20T12:37:08.094Z,101625.44
2023-02-20T12:40:09.733Z,101655.03
2023-02-20T12:42:45.639Z,101668.97
2023-02-20T12:45:21.194Z,101602.72
2023-02-20T12:47:57.809Z,101479.16
2023-02-20T12:50:44.606Z,101576.72
2023-02-20T12:53:29.936Z,101521.06
2023-02-20T12:56:21.037Z,101675.94
2023-02-20T12:59:21.497Z,101675.94
2023-02-20T13:01:51.143Z,101655.03
2023-02-20T13:04:28.015Z,101658.50
2023-02-20T13:07:15.467Z,101543.63
2023-02-20T13:09:58.558Z,101542.78
2023-02-20T13:12:25.203Z,101626.31
2023-02-20T13:15:26.153Z,101657.66
2023-02-20T13:18:04.636Z,101643.69
2023-02-20T13:20:44.750Z,101624.56
2023-02-20T13:23:17.118Z,101639.31
2023-02-20T13:25:48.883Z,101611.44
2023-02-20T13:28:24.321Z,101627.16
2023-02-20T13:31:17.150Z,101614.91
2023-02-20T13:33:48.621Z,101512.28
2023-02-20T13:36:44.502Z,101516.66
2023-02-20T13:39:17.251Z,101591.38
2023-02-20T13:41:55.796Z,101570.50
2023-02-20T13:44:28.538Z,101561.88
2023-02-20T13:47:27.828Z,101540.19
2023-02-20T13:49:58.852Z,101524.50
2023-02-20T13:52:37.548Z,101530.50
2023-02-20T13:55:32.301Z,101474.03
2023-02-20T13:58:12.238Z,101393.22
2023-02-20T14:00:55.122Z,101529.63
2023-02-20T14:03:26.453Z,101507.88
2023-02-20T14:06:13.169Z,101524.31
2023-02-20T14:08:42.138Z,101475.69
2023-02-20T14:11:10.384Z,101519.22
2023-02-20T14:13:40.982Z,101449.69
2023-02-20T14:16:42.006Z,101491.38
2023-02-20T14:19:20.997Z,101470.44
2023-02-20T14:21:47.492Z,101364.47
2023-02-20T14:24:35.635Z,101421.72
2023-02-20T14:27:30.608Z,101459.13
2023-02-20T14:30:04.627Z,101501.66
2023-02-20T14:32:31.197Z,101409.56
2023-02-20T14:35:12.484Z,101515.59
2023-02-20T14:37:53.633Z,101524.31
2023-02-20T14:40:34.061Z,101503.44
2023-02-20T14:43:02.784Z,101525.97
2023-02-20T14:45:30.004Z,101509.59
2023-02-20T14:47:59.109Z,101536.53
2023-02-20T14:50:34.931Z,101529.53
2023-02-20T14:53:02.752Z,101502.59
2023-02-20T14:55:29.948Z,101539.00
2023-02-20T14:57:56.385Z,101403.41
2023-02-20T15:00:32.400Z,101531.19
2023-02-20T15:02:59.322Z,101379.19
2023-02-20T15:05:30.513Z,101379.25
2023-02-20T15:08:27.310Z,101480.81
2023-02-20T15:10:56.166Z,101421.69
2023-02-20T15:13:27.442Z,101525.19
2023-02-20T15:16:06.247Z,101508.63
2023-02-20T15:18:38.750Z,101538.16
2023-02-20T15:21:06.480Z,101310.56
2023-02-20T15:23:35.119Z,101528.53
2023-02-20T15:26:29.829Z,101537.28
2023-02-20T15:29:18.127Z,101534.56
2023-02-20T15:31:46.147Z,101456.34
2023-02-20T15:34:23.035Z,101475.53
2023-02-20T15:36:49.821Z,101506.81
2023-02-20T15:39:17.334Z,101442.41
2023-02-20T15:41:45.180Z,101514.72
2023-02-20T15:44:11.670Z,101376.41
2023-02-20T15:46:38.113Z,101423.28
2023-02-20T15:49:07.072Z,101520.63
2023-02-20T15:51:38.110Z,101376.38
2023-02-20T15:54:05.308Z,101519.78
2023-02-20T15:56:34.354Z,101407.81
2023-02-20T15:59:06.170Z,101491.22
2023-02-20T16:01:32.592Z,101416.53
2023-02-20T16:03:59.327Z,101357.47
2023-02-20T16:06:25.947Z,101386.13
2023-02-20T16:08:52.770Z,101378.38
2023-02-20T16:11:22.284Z,101354.03
2023-02-20T16:13:54.130Z,101341.00
2023-02-20T16:16:32.254Z,101545.13
2023-02-20T16:18:58.935Z,101445.97
2023-02-20T16:21:25.790Z,101524.16
2023-02-20T16:23:52.532Z,101512.94
2023-02-20T16:26:21.709Z,101510.31
2023-02-20T16:28:54.832Z,101432.03
2023-02-20T16:31:21.293Z,101486.69
2023-02-20T16:33:49.409Z,101511.94
2023-02-20T16:36:24.224Z,101431.16
2023-02-20T16:38:51.327Z,101509.44
2023-02-20T16:41:17.843Z,101390.31
2023-02-20T16:43:44.352Z,101439.91
2023-02-20T16:46:10.797Z,101484.34
2023-02-20T16:48:37.310Z,101375.63
2023-02-20T16:51:06.208Z,101396.41
2023-02-20T16:53:32.929Z,101418.25
2023-02-20T16:55:59.390Z,101388.66
2023-02-20T16:58:25.975Z,101465.94
2023-02-20T17:00:57.503Z,101472.88
2023-02-20T17:03:25.344Z,101511.00
2023-02-20T17:05:58.378Z,101432.06
2023-02-20T17:08:25.937Z,101514.56
2023-02-20T17:10:53.207Z,101415.47
2023-02-20T17:13:19.589Z,101288.88
2023-02-20T17:15:47.593Z,101457.19
2023-02-20T17:18:15.230Z,101494.47
2023-02-20T17:20:41.819Z,101490.09
2023-02-20T17:23:08.223Z,101491.06
2023-02-20T17:25:34.856Z,101480.50
2023-02-20T17:28:04.105Z,101466.50
2023-02-20T17:30:30.728Z,101459.56
2023-02-20T17:32:57.175Z,101396.25
2023-02-20T17:35:26.130Z,101442.19
2023-02-20T17:37:52.687Z,101491.03
2023-02-20T17:40:19.540Z,101475.41
2023-02-20T17:42:46.095Z,101451.13
2023-02-20T17:45:13.021Z,101384.34
2023-02-20T17:47:39.637Z,101354.75
2023-02-20T17:50:09.428Z,101418.06
2023-02-20T17:52:37.296Z,101469.31
2023-02-20T17:55:04.198Z,101463.34
2023-02-20T17:57:32.393Z,101453.84
2023-02-20T17:59:58.787Z,101524.91
2023-02-20T18:02:25.195Z,101522.25
2023-02-20T18:04:51.713Z,101380.91
2023-02-20T18:07:18.383Z,101345.25
2023-02-20T18:09:45.250Z,101500.63
2023-02-20T18:12:14.925Z,101412.84
2023-02-20T18:14:41.659Z,101454.66
2023-02-20T18:17:09.616Z,101362.63
2023-02-20T18:19:41.723Z,101408.63
2023-02-20T18:22:08.334Z,101390.34
2023-02-20T18:24:35.065Z,101475.63
2023-02-20T18:27:01.621Z,101459.88
2023-02-20T18:29:29.949Z,101517.97
2023-02-20T18:31:57.364Z,101504.16
2023-02-20T18:34:27.814Z,101428.50
2023-02-20T18:36:54.733Z,101474.72
2023-02-20T18:39:21.858Z,101512.03
2023-02-20T18:41:56.611Z,101390.38
2023-02-20T18:44:23.883Z,101410.31
2023-02-20T18:46:51.094Z,101524.22
2023-02-20T18:49:17.632Z,101423.56
2023-02-20T18:51:45.002Z,101377.44
2023-02-20T18:54:18.119Z,101552.78
2023-02-20T18:56:49.028Z,101512.88
2023-02-20T18:59:16.644Z,101480.75
2023-02-20T19:01:43.658Z,101494.69
2023-02-20T19:04:12.754Z,101406.84
2023-02-20T19:06:44.418Z,101483.25
2023-02-20T19:09:14.586Z,101478.13
2023-02-20T19:11:41.334Z,101510.25
2023-02-20T19:14:11.217Z,101421.81
2023-02-20T19:16:40.800Z,101432.16
2023-02-20T19:19:10.032Z,101499.91
2023-02-20T19:21:36.412Z,101482.50
2023-02-20T19:24:04.130Z,101527.53
2023-02-20T19:26:32.927Z,101449.50
2023-02-20T19:31:26.059Z,101321.84
2023-02-20T19:33:52.630Z,101459.03
2023-02-20T19:36:19.209Z,101366.09
2023-02-20T19:38:49.268Z,101433.78
2023-02-20T19:41:17.576Z,101402.59
2023-02-20T19:43:47.250Z,101360.97
2023-02-20T19:46:39.010Z,101363.53
2023-02-20T19:49:09.890Z,101409.50
2023-02-20T19:51:46.266Z,101397.38
2023-02-20T19:54:12.773Z,101496.28
2023-02-20T19:56:39.272Z,101400.84
2023-02-20T19:59:05.768Z,101390.34
2023-02-20T20:01:37.898Z,101435.59
2023-02-20T20:04:04.369Z,101291.53
2023-02-20T20:06:32.101Z,101482.53
2023-02-20T20:09:13.717Z,101482.47
2023-02-20T20:11:45.766Z,101512.94
2023-02-20T20:14:18.878Z,101267.16
2023-02-20T20:16:45.827Z,101373.03
2023-02-20T20:19:12.544Z,101390.41
2023-02-20T20:21:39.092Z,101387.97
2023-02-20T20:24:10.753Z,101402.59
2023-02-20T20:26:40.699Z,101357.50
2023-02-20T20:29:11.797Z,101289.78
2023-02-20T20:31:41.402Z,101287.97
2023-02-20T20:34:08.701Z,101367.91
2023-02-20T20:36:40.552Z,101299.28
2023-02-20T20:39:07.073Z,101308.78
2023-02-20T20:41:44.413Z,101445.88
2023-02-20T20:44:15.619Z,101444.16
2023-02-20T20:46:47.084Z,101418.19
2023-02-20T20:49:14.050Z,101459.84
2023-02-20T20:51:47.611Z,101419.81
2023-02-20T20:54:17.544Z,101287.91
2023-02-20T20:56:46.747Z,101334.00
2023-02-20T20:59:15.962Z,101418.03
2023-02-20T21:01:42.993Z,101317.53
2023-02-20T21:04:10.542Z,101307.81
2023-02-20T21:06:37.174Z,101475.53
2023-02-20T21:09:03.852Z,101376.44
2023-02-20T21:11:30.847Z,101280.03
2023-02-20T21:14:01.482Z,101296.59
2023-02-20T21:16:30.224Z,101432.91
2023-02-20T21:18:59.437Z,101373.91
2023-02-20T21:21:33.684Z,101381.78
2023-02-20T21:24:00.510Z,101459.75
2023-02-20T21:26:27.171Z,101345.22
2023-02-20T21:28:55.516Z,101343.50
2023-02-20T21:31:28.162Z,101304.44
2023-02-20T21:33:55.531Z,101311.47
2023-02-20T21:36:32.992Z,101279.31
2023-02-20T21:39:24.350Z,101432.00
2023-02-20T21:42:11.876Z,101481.53
2023-02-20T21:44:42.818Z,101480.56
2023-02-20T21:47:16.893Z,101259.38
2023-02-20T21:49:46.505Z,101371.34
2023-02-20T21:52:20.701Z,101435.69
2023-02-20T21:55:43.896Z,101470.28
2023-02-20T21:58:10.646Z,101433.91
2023-02-20T22:00:37.133Z,101334.88
2023-02-20T22:03:03.847Z,101361.75
2023-02-20T22:05:30.321Z,101373.06
2023-02-20T22:08:19.382Z,101322.69
2023-02-20T22:11:04.227Z,101300.16
2023-02-20T22:13:49.472Z,101322.63
2023-02-20T22:16:38.851Z,101369.50
2023-02-20T22:19:27.109Z,101402.38
2023-02-20T22:22:11.784Z,101416.50
2023-02-20T22:24:59.548Z,101405.13
2023-02-20T22:27:44.299Z,101417.47
2023-02-20T22:30:29.997Z,101347.13
2023-02-20T22:33:16.658Z,101463.38
2023-02-20T22:36:07.029Z,101432.25
2023-02-20T22:38:51.857Z,101329.78
2023-02-20T22:41:40.088Z,101427.91
2023-02-20T22:44:29.505Z,101410.50
2023-02-20T22:47:14.254Z,101442.69
2023-02-20T22:49:59.164Z,101425.22
2023-02-20T22:52:43.994Z,101337.50
2023-02-20T22:55:30.847Z,101348.75
2023-02-20T22:58:15.844Z,101238.56
2023-02-20T23:01:00.691Z,101351.34
2023-02-20T23:03:45.901Z,101390.50
2023-02-20T23:06:31.108Z,101422.56
2023-02-20T23:09:15.895Z,101446.13
2023-02-20T23:12:00.827Z,101420.00
2023-02-20T23:14:45.644Z,101412.09
2023-02-20T23:17:36.691Z,101404.31
2023-02-20T23:20:27.051Z,101419.97
2023-02-20T23:23:12.269Z,101314.88
2023-02-20T23:25:57.052Z,101411.16
2023-02-20T23:28:41.979Z,101421.75
2023-02-20T23:31:27.079Z,101419.13
2023-02-20T23:34:13.672Z,101390.53
2023-02-20T23:37:03.505Z,101407.06
2023-02-20T23:39:48.274Z,101373.16
2023-02-20T23:42:35.588Z,101441.78
2023-02-20T23:45:20.870Z,101439.09
2023-02-20T23:48:07.618Z,101433.84
2023-02-20T23:50:52.761Z,101409.56
2023-02-20T23:53:37.584Z,101436.44
2023-02-20T23:56:25.930Z,101389.44
2023-02-20T23:59:10.665Z,101374.69
